Flight Track Log - Related Links

Times and Time Zones

All times are in EDT time to prevent confusion due to time zone crossing. See the EJA122 flight status page for this flight to view local times or setup timezone preferences in your user account.

Time Position Orientation Groundspeed Altitude Reporting Facility
EDT Latitude Longitude Course Direction KTS MPH feet Rate Location/Type
Mon 09:00:03 PM 30.4219 -84.2778 148° Southeast 233 268 5,500  Level Jacksonville Center
Mon 09:01:03 PM 30.3575 -84.2383 152° Southeast 239 275 7,800 2,380 Climbing Jacksonville Center
Mon 09:02:04 PM 30.2911 -84.1964 151° Southeast 257 296 10,300 2,100 Climbing Jacksonville Center
Mon 09:03:03 PM 30.2228 -84.1497 149° Southeast 268 308 12,000 1,613 Climbing Jacksonville Center
Mon 09:04:00 PM 30.1211 -84.0888 148° Southeast  Level FlightAware Approximate
Mon 09:04:03 PM 30.1522 -84.1058 152° Southeast 298 343 13,500  Level Jacksonville Center
Mon 09:05:00 PM 30.0273 -84.0217 148° Southeast  Level FlightAware Approximate
Mon 09:05:03 PM 30.0711 -84.0567 152° Southeast 318 366 14,900  Level Jacksonville Center
Mon 09:06:04 PM 29.9903 -84.0053 151° Southeast 331 381 16,400 1,500 Climbing Jacksonville Center
Mon 09:07:03 PM 29.9072 -83.9517 151° Southeast 337 388 17,900 1,350 Climbing Jacksonville Center
Mon 09:08:04 PM 29.8242 -83.8981 151° Southeast 337 388 19,100 1,250 Climbing Jacksonville Center
Mon 09:09:03 PM 29.7369 -83.8444 152° Southeast 342 394 20,400 1,311 Climbing Jacksonville Center
Mon 09:10:03 PM 29.6517 -83.7889 150° Southeast 347 399 21,700 1,240 Climbing Jacksonville Center
Mon 09:11:04 PM 29.5644 -83.7331 151° Southeast 347 399 22,900 1,190 Climbing Jacksonville Center
Mon 09:12:04 PM 29.4792 -83.6750 149° Southeast 347 399 24,100 1,210 Climbing Jacksonville Center
Mon 09:13:03 PM 29.4022 -83.6031 141° Southeast 352 405 25,300 1,160 Climbing Jacksonville Center
Mon 09:14:03 PM 29.3233 -83.5286 141° Southeast 359 413 26,400 1,050 Climbing Jacksonville Center
Mon 09:15:03 PM 29.2444 -83.4542 141° Southeast 369 425 27,400 942 Climbing Jacksonville Center
Mon 09:16:04 PM 29.1633 -83.3728 139° Southeast 374 430 28,300 950 Climbing Jacksonville Center
Mon 09:17:03 PM 29.0781 -83.2917 140° Southeast 380 437 29,300 958 Climbing Jacksonville Center
Mon 09:18:03 PM 28.9928 -83.2131 141° Southeast 392 451 30,200 893 Climbing Jacksonville Center
Mon 09:19:04 PM 28.9072 -83.1344 141° Southeast 398 458 31,100 942 Climbing Jacksonville Center
Mon 09:20:04 PM 28.8050 -83.0869 158° South 398 458 32,100 908 Climbing Jacksonville Center
Mon 09:21:03 PM 28.7008 -83.0442 160° South 396 456 32,900 797 Climbing Jacksonville Center
Mon 09:22:42 PM 28.5186 -82.9722 161° South 410 472 34,200 717 Climbing Miami Center
Mon 09:23:42 PM 28.4122 -82.9286 160° South 404 465 34,800 400 Climbing Miami Center
Mon 09:24:42 PM 28.3014 -82.8847 161° South 404 465 35,000 100 Climbing Miami Center
Mon 09:25:42 PM 28.1906 -82.8389 160° South 418 481 35,000  Level Miami Center
Mon 09:26:42 PM 28.0717 -82.7925 161° South 439 505 35,000  Level Miami Center
Mon 09:27:42 PM 27.9483 -82.7461 162° South 454 522 35,000  Level Miami Center
Mon 09:28:42 PM 27.8294 -82.6978 160° South 459 528 35,000  Level Miami Center
Mon 09:29:42 PM 27.7225 -82.6594 162° South 451 519 35,000 -150 Level Miami Center
Mon 09:30:42 PM 27.5969 -82.6158 163° South 462 532 34,700 -700 Descending Miami Center
Mon 09:31:42 PM 27.4633 -82.5647 161° South 462 532 33,600 -1,000 Descending Miami Center
Mon 09:32:42 PM 27.3419 -82.5189 161° South 462 532 32,700 -900 Descending Miami Center
Mon 09:33:42 PM 27.2189 -82.4661 159° South 467 537 31,800 -900 Descending Miami Center
Mon 09:34:42 PM 27.1222 -82.3753 140° Southeast 453 521 30,900 -900 Descending Miami Center
Mon 09:35:42 PM 27.0383 -82.2733 133° Southeast 453 521 30,000 -900 Descending Miami Center
Mon 09:36:42 PM 26.9461 -82.1711 135° Southeast 458 527 29,100 -950 Descending Miami Center
Mon 09:37:42 PM 26.8581 -82.0694 134° Southeast 458 527 28,100 -1,000 Descending Miami Center
Mon 09:38:42 PM 26.7778 -81.9775 134° Southeast 464 534 27,100 -950 Descending Miami Center
Mon 09:39:42 PM 26.6875 -81.8761 135° Southeast 464 534 26,200 -900 Descending Miami Center
Mon 09:40:42 PM 26.5992 -81.7747 134° Southeast 458 527 25,300 -850 Descending Miami Center
Mon 09:41:42 PM 26.5106 -81.6736 134° Southeast 458 527 24,500 -750 Descending Miami Center
Mon 09:42:42 PM 26.4161 -81.5608 133° Southeast 448 516 23,800 -750 Descending Miami Center
Mon 09:43:42 PM 26.3275 -81.4622 135° Southeast 448 516 23,000 -1,350 Descending Miami Center
Mon 09:44:42 PM 26.2386 -81.3614 134° Southeast 448 516 21,100 -2,300 Descending Miami Center
Mon 09:45:42 PM 26.1558 -81.2681 135° Southeast 443 510 18,400 -2,500 Descending Miami Center
Mon 09:46:42 PM 26.0853 -81.1869 134° Southeast 418 481 16,100 -2,200 Descending Miami Center
Mon 09:47:42 PM 26.0167 -81.1081 134° Southeast 379 436 14,000 -2,150 Descending Miami Center
Mon 09:48:42 PM 25.9458 -81.0269 134° Southeast 339 390 11,800 -1,950 Descending Miami Center
Mon 09:49:42 PM 25.9081 -80.9542 120° Southeast 286 329 10,100 -1,433 Descending Miami Center
Mon 09:50:56 PM 25.9150 -80.8575 85° East 250 288 8,600 -1,350 Descending Miami Center
Mon 09:51:42 PM 25.9250 -80.7931 80° East 246 283 7,400 -1,698 Descending Miami Center
Mon 09:52:42 PM 25.9439 -80.7153 75° East 258 297 5,600 -1,800 Descending Miami Center
Mon 09:53:42 PM 25.9625 -80.6442 74° East 247 284 3,800 -1,750 Descending Miami Center
Mon 09:54:42 PM 25.9767 -80.5753 77° East 236 272 2,100 -900 Descending Miami Center
Mon 09:55:42 PM 25.9953 -80.5067 73° East 231 266 2,000 -50 Descending Miami Center
Mon 09:56:42 PM 25.9947 -80.4442 91° East 220 253 2,000  Level Miami Center
Mon 09:58:08 PM 25.9606 -80.3831 122° Southeast 140 161 2,000 -286 Level Miami Center
Mon 09:59:09 PM 25.9364 -80.3453 125° Southeast 136 157 1,300 -738 Descending Miami Center
Mon 10:00:10 PM 25.9183 -80.3125 121° Southeast 127 146 500 -787 Descending Miami Center
Mon 10:02:00 PM 25.9074 -80.2782 90° East  Level Estimated

Login

Don't have an account? Register now (free) for customized features, flight alerts, and more!